Terminal Aerodrome Forecast
Issued by NWS

Home | Current Version | Previous Version | Text Only | Print | Product List | Glossary On
Versions: 1 2 3 4 5 6 7 8 9 10 11 12 13
000
FTUS44 KLZK 301700
TAFLIT
TAF
KLIT 301721Z 3018/3118 18008KT P6SM SCT080 BKN120
     FM302000 24006KT P6SM VCSH SCT025 OVC050
      TEMPO 3023/3103 5SM -SHRA BR BKN025
     FM310300 VRB05KT 5SM -SHRA BR BKN025 OVC040
      TEMPO 3108/3112 1SM SHRA BR OVC012
     FM311500 13007KT P6SM VCSH SCT025 BKN035 PROB30 3115/3118 5SM
      -SHRA BR BKN025=

USA.gov is the U.S. government's official web portal to all federal, state and local government web resources and services.